sensor_id;sensor_type;location;lat;lon;timestamp;P1;durP1;ratioP1;P2;durP2;ratioP2
51578;SDS011;47998;53.242;6.386;2022-11-23T00:00:45;38.17;;;23.00;;
51578;SDS011;47998;53.242;6.386;2022-11-23T00:03:14;35.40;;;23.52;;
51578;SDS011;47998;53.242;6.386;2022-11-23T00:05:40;41.25;;;23.95;;
51578;SDS011;47998;53.242;6.386;2022-11-23T00:08:06;36.03;;;22.48;;
51578;SDS011;47998;53.242;6.386;2022-11-23T00:10:31;38.88;;;23.67;;
51578;SDS011;47998;53.242;6.386;2022-11-23T00:12:57;35.05;;;22.77;;
51578;SDS011;47998;53.242;6.386;2022-11-23T00:15:23;38.97;;;23.77;;
51578;SDS011;47998;53.242;6.386;2022-11-23T00:17:48;36.55;;;22.63;;
51578;SDS011;47998;53.242;6.386;2022-11-23T00:20:14;35.85;;;22.67;;
51578;SDS011;47998;53.242;6.386;2022-11-23T00:22:40;31.20;;;21.73;;
51578;SDS011;47998;53.242;6.386;2022-11-23T00:25:06;34.28;;;22.95;;
51578;SDS011;47998;53.242;6.386;2022-11-23T00:27:32;33.92;;;22.02;;
51578;SDS011;47998;53.242;6.386;2022-11-23T00:29:58;33.17;;;21.48;;
51578;SDS011;47998;53.242;6.386;2022-11-23T00:32:23;35.95;;;21.38;;
51578;SDS011;47998;53.242;6.386;2022-11-23T00:34:49;33.50;;;22.25;;
51578;SDS011;47998;53.242;6.386;2022-11-23T00:37:14;37.00;;;21.88;;
51578;SDS011;47998;53.242;6.386;2022-11-23T00:39:40;31.83;;;21.67;;
51578;SDS011;47998;53.242;6.386;2022-11-23T00:42:06;32.63;;;20.35;;
51578;SDS011;47998;53.242;6.386;2022-11-23T00:44:31;28.35;;;20.35;;
51578;SDS011;47998;53.242;6.386;2022-11-23T00:46:57;27.38;;;20.48;;
51578;SDS011;47998;53.242;6.386;2022-11-23T00:49:23;30.08;;;20.77;;
51578;SDS011;47998;53.242;6.386;2022-11-23T00:51:48;30.65;;;20.27;;
51578;SDS011;47998;53.242;6.386;2022-11-23T00:54:14;29.15;;;19.17;;
51578;SDS011;47998;53.242;6.386;2022-11-23T00:56:40;28.33;;;18.30;;
51578;SDS011;47998;53.242;6.386;2022-11-23T00:59:05;27.92;;;19.27;;
51578;SDS011;47998;53.242;6.386;2022-11-23T01:01:32;32.80;;;18.63;;
51578;SDS011;47998;53.242;6.386;2022-11-23T01:04:01;24.35;;;16.70;;
51578;SDS011;47998;53.242;6.386;2022-11-23T01:06:36;30.00;;;18.17;;
51578;SDS011;47998;53.242;6.386;2022-11-23T01:09:07;28.05;;;17.67;;
51578;SDS011;47998;53.242;6.386;2022-11-23T01:11:42;23.80;;;17.42;;
51578;SDS011;47998;53.242;6.386;2022-11-23T01:14:08;27.88;;;18.27;;
51578;SDS011;47998;53.242;6.386;2022-11-23T01:16:35;24.10;;;16.38;;
51578;SDS011;47998;53.242;6.386;2022-11-23T01:19:07;21.08;;;16.17;;
51578;SDS011;47998;53.242;6.386;2022-11-23T01:21:35;24.50;;;15.82;;
51578;SDS011;47998;53.242;6.386;2022-11-23T01:24:05;24.17;;;17.20;;
51578;SDS011;47998;53.242;6.386;2022-11-23T01:26:39;25.55;;;16.90;;
51578;SDS011;47998;53.242;6.386;2022-11-23T01:29:05;22.67;;;15.70;;
51578;SDS011;47998;53.242;6.386;2022-11-23T01:31:31;23.90;;;15.43;;
51578;SDS011;47998;53.242;6.386;2022-11-23T01:33:58;29.77;;;16.70;;
51578;SDS011;47998;53.242;6.386;2022-11-23T01:36:27;22.40;;;14.48;;
51578;SDS011;47998;53.242;6.386;2022-11-23T01:38:54;24.65;;;14.95;;
51578;SDS011;47998;53.242;6.386;2022-11-23T01:41:21;25.35;;;15.20;;
51578;SDS011;47998;53.242;6.386;2022-11-23T01:43:52;21.05;;;15.50;;
51578;SDS011;47998;53.242;6.386;2022-11-23T01:46:18;23.83;;;15.13;;
51578;SDS011;47998;53.242;6.386;2022-11-23T01:48:57;25.02;;;15.48;;
51578;SDS011;47998;53.242;6.386;2022-11-23T01:51:29;25.70;;;17.52;;
51578;SDS011;47998;53.242;6.386;2022-11-23T01:54:25;27.08;;;15.88;;
51578;SDS011;47998;53.242;6.386;2022-11-23T01:57:05;25.27;;;15.77;;
51578;SDS011;47998;53.242;6.386;2022-11-23T01:59:36;25.50;;;16.10;;
51578;SDS011;47998;53.242;6.386;2022-11-23T02:02:02;22.23;;;14.70;;
51578;SDS011;47998;53.242;6.386;2022-11-23T02:04:29;24.17;;;16.25;;
51578;SDS011;47998;53.242;6.386;2022-11-23T02:06:58;22.65;;;14.52;;
51578;SDS011;47998;53.242;6.386;2022-11-23T02:09:26;26.35;;;16.42;;
51578;SDS011;47998;53.242;6.386;2022-11-23T02:11:55;23.75;;;16.45;;
51578;SDS011;47998;53.242;6.386;2022-11-23T02:14:20;19.90;;;14.77;;
51578;SDS011;47998;53.242;6.386;2022-11-23T02:16:46;24.10;;;15.70;;
51578;SDS011;47998;53.242;6.386;2022-11-23T02:19:15;27.48;;;16.00;;
51578;SDS011;47998;53.242;6.386;2022-11-23T02:21:55;20.75;;;15.02;;
51578;SDS011;47998;53.242;6.386;2022-11-23T02:24:28;25.77;;;15.80;;
51578;SDS011;47998;53.242;6.386;2022-11-23T02:26:59;22.40;;;15.23;;
51578;SDS011;47998;53.242;6.386;2022-11-23T02:29:26;26.55;;;16.33;;
51578;SDS011;47998;53.242;6.386;2022-11-23T02:31:53;31.60;;;17.50;;
51578;SDS011;47998;53.242;6.386;2022-11-23T02:34:19;30.33;;;17.50;;
51578;SDS011;47998;53.242;6.386;2022-11-23T02:36:45;24.95;;;16.25;;
51578;SDS011;47998;53.242;6.386;2022-11-23T02:39:16;29.60;;;17.02;;
51578;SDS011;47998;53.242;6.386;2022-11-23T02:41:50;27.42;;;15.45;;
51578;SDS011;47998;53.242;6.386;2022-11-23T02:44:25;29.95;;;17.00;;
51578;SDS011;47998;53.242;6.386;2022-11-23T02:46:53;27.42;;;17.20;;
51578;SDS011;47998;53.242;6.386;2022-11-23T02:49:19;32.88;;;16.50;;
51578;SDS011;47998;53.242;6.386;2022-11-23T02:51:45;28.65;;;16.55;;
51578;SDS011;47998;53.242;6.386;2022-11-23T02:54:10;27.80;;;16.65;;
51578;SDS011;47998;53.242;6.386;2022-11-23T02:56:36;31.85;;;17.42;;
51578;SDS011;47998;53.242;6.386;2022-11-23T02:59:02;28.33;;;18.08;;
51578;SDS011;47998;53.242;6.386;2022-11-23T03:01:27;27.60;;;16.20;;
51578;SDS011;47998;53.242;6.386;2022-11-23T03:03:53;33.50;;;18.17;;
51578;SDS011;47998;53.242;6.386;2022-11-23T03:06:19;28.88;;;18.38;;
51578;SDS011;47998;53.242;6.386;2022-11-23T03:08:44;28.73;;;17.98;;
51578;SDS011;47998;53.242;6.386;2022-11-23T03:11:10;28.30;;;17.98;;
51578;SDS011;47998;53.242;6.386;2022-11-23T03:13:36;37.25;;;18.13;;
51578;SDS011;47998;53.242;6.386;2022-11-23T03:16:01;30.25;;;17.45;;
51578;SDS011;47998;53.242;6.386;2022-11-23T03:18:27;29.25;;;18.50;;
51578;SDS011;47998;53.242;6.386;2022-11-23T03:20:53;36.42;;;19.10;;
51578;SDS011;47998;53.242;6.386;2022-11-23T03:23:19;33.63;;;19.15;;
51578;SDS011;47998;53.242;6.386;2022-11-23T03:25:45;37.40;;;20.08;;
51578;SDS011;47998;53.242;6.386;2022-11-23T03:28:22;35.97;;;19.23;;
51578;SDS011;47998;53.242;6.386;2022-11-23T03:30:47;44.67;;;20.38;;
51578;SDS011;47998;53.242;6.386;2022-11-23T03:33:13;36.25;;;20.83;;
51578;SDS011;47998;53.242;6.386;2022-11-23T03:35:39;38.25;;;20.30;;
51578;SDS011;47998;53.242;6.386;2022-11-23T03:38:04;40.03;;;20.85;;
51578;SDS011;47998;53.242;6.386;2022-11-23T03:40:30;39.08;;;20.85;;
51578;SDS011;47998;53.242;6.386;2022-11-23T03:42:56;40.47;;;21.25;;
51578;SDS011;47998;53.242;6.386;2022-11-23T03:45:21;43.03;;;21.88;;
51578;SDS011;47998;53.242;6.386;2022-11-23T03:47:47;40.00;;;20.92;;
51578;SDS011;47998;53.242;6.386;2022-11-23T03:50:13;38.60;;;21.50;;
51578;SDS011;47998;53.242;6.386;2022-11-23T03:52:38;35.20;;;21.25;;
51578;SDS011;47998;53.242;6.386;2022-11-23T03:55:04;54.75;;;21.67;;
51578;SDS011;47998;53.242;6.386;2022-11-23T03:57:30;42.63;;;21.67;;
51578;SDS011;47998;53.242;6.386;2022-11-23T03:59:56;42.90;;;21.75;;
51578;SDS011;47998;53.242;6.386;2022-11-23T04:02:22;44.28;;;22.42;;
51578;SDS011;47998;53.242;6.386;2022-11-23T04:04:47;46.40;;;23.48;;
51578;SDS011;47998;53.242;6.386;2022-11-23T04:07:13;53.15;;;25.05;;
51578;SDS011;47998;53.242;6.386;2022-11-23T04:09:39;43.35;;;22.98;;
51578;SDS011;47998;53.242;6.386;2022-11-23T04:12:04;49.67;;;24.90;;
51578;SDS011;47998;53.242;6.386;2022-11-23T04:14:30;42.13;;;23.50;;
51578;SDS011;47998;53.242;6.386;2022-11-23T04:16:56;44.33;;;24.08;;
51578;SDS011;47998;53.242;6.386;2022-11-23T04:19:22;51.85;;;26.23;;
51578;SDS011;47998;53.242;6.386;2022-11-23T04:21:47;45.92;;;24.63;;
51578;SDS011;47998;53.242;6.386;2022-11-23T04:24:13;53.78;;;26.70;;
51578;SDS011;47998;53.242;6.386;2022-11-23T04:26:39;57.97;;;28.45;;
51578;SDS011;47998;53.242;6.386;2022-11-23T04:29:04;49.78;;;23.45;;
51578;SDS011;47998;53.242;6.386;2022-11-23T04:31:30;57.38;;;26.70;;
51578;SDS011;47998;53.242;6.386;2022-11-23T04:33:56;52.65;;;26.42;;
51578;SDS011;47998;53.242;6.386;2022-11-23T04:36:22;59.47;;;30.30;;
51578;SDS011;47998;53.242;6.386;2022-11-23T04:38:48;53.20;;;28.98;;
51578;SDS011;47998;53.242;6.386;2022-11-23T04:41:14;74.03;;;30.67;;
51578;SDS011;47998;53.242;6.386;2022-11-23T04:43:40;57.90;;;29.30;;
51578;SDS011;47998;53.242;6.386;2022-11-23T04:46:05;60.85;;;29.63;;
51578;SDS011;47998;53.242;6.386;2022-11-23T04:48:31;64.30;;;30.27;;
51578;SDS011;47998;53.242;6.386;2022-11-23T04:50:57;70.53;;;29.35;;
51578;SDS011;47998;53.242;6.386;2022-11-23T04:53:23;64.30;;;30.70;;
51578;SDS011;47998;53.242;6.386;2022-11-23T04:55:49;59.90;;;30.52;;
51578;SDS011;47998;53.242;6.386;2022-11-23T04:58:14;64.65;;;29.98;;
51578;SDS011;47998;53.242;6.386;2022-11-23T05:00:40;57.58;;;29.13;;
51578;SDS011;47998;53.242;6.386;2022-11-23T05:03:06;65.10;;;29.67;;
51578;SDS011;47998;53.242;6.386;2022-11-23T05:05:31;57.85;;;30.10;;
51578;SDS011;47998;53.242;6.386;2022-11-23T05:07:57;65.90;;;31.40;;
51578;SDS011;47998;53.242;6.386;2022-11-23T05:10:23;63.70;;;29.88;;
51578;SDS011;47998;53.242;6.386;2022-11-23T05:12:49;66.40;;;31.38;;
51578;SDS011;47998;53.242;6.386;2022-11-23T05:15:15;62.53;;;30.40;;
51578;SDS011;47998;53.242;6.386;2022-11-23T05:17:41;73.85;;;30.67;;
51578;SDS011;47998;53.242;6.386;2022-11-23T05:20:07;63.40;;;31.38;;
51578;SDS011;47998;53.242;6.386;2022-11-23T05:22:33;62.88;;;30.17;;
51578;SDS011;47998;53.242;6.386;2022-11-23T05:24:59;66.90;;;32.75;;
51578;SDS011;47998;53.242;6.386;2022-11-23T05:27:24;65.50;;;31.48;;
51578;SDS011;47998;53.242;6.386;2022-11-23T05:29:50;63.13;;;32.72;;
51578;SDS011;47998;53.242;6.386;2022-11-23T05:32:16;57.67;;;31.15;;
51578;SDS011;47998;53.242;6.386;2022-11-23T05:34:42;65.70;;;31.45;;
51578;SDS011;47998;53.242;6.386;2022-11-23T05:37:07;66.43;;;32.58;;
51578;SDS011;47998;53.242;6.386;2022-11-23T05:39:33;62.95;;;32.22;;
51578;SDS011;47998;53.242;6.386;2022-11-23T05:41:59;60.17;;;33.05;;
51578;SDS011;47998;53.242;6.386;2022-11-23T05:44:24;54.53;;;29.83;;
51578;SDS011;47998;53.242;6.386;2022-11-23T05:46:50;74.30;;;35.25;;
51578;SDS011;47998;53.242;6.386;2022-11-23T05:49:16;65.68;;;32.42;;
51578;SDS011;47998;53.242;6.386;2022-11-23T05:51:41;68.32;;;32.50;;
51578;SDS011;47998;53.242;6.386;2022-11-23T05:54:07;64.45;;;31.98;;
51578;SDS011;47998;53.242;6.386;2022-11-23T05:56:33;69.25;;;33.00;;
51578;SDS011;47998;53.242;6.386;2022-11-23T05:58:59;60.20;;;31.92;;
51578;SDS011;47998;53.242;6.386;2022-11-23T06:01:24;59.58;;;31.50;;
51578;SDS011;47998;53.242;6.386;2022-11-23T06:03:50;66.70;;;31.65;;
51578;SDS011;47998;53.242;6.386;2022-11-23T06:06:16;66.43;;;33.40;;
51578;SDS011;47998;53.242;6.386;2022-11-23T06:08:42;55.30;;;31.63;;
51578;SDS011;47998;53.242;6.386;2022-11-23T06:11:07;56.38;;;31.75;;
51578;SDS011;47998;53.242;6.386;2022-11-23T06:13:33;53.55;;;31.17;;
51578;SDS011;47998;53.242;6.386;2022-11-23T06:15:59;52.58;;;30.15;;
51578;SDS011;47998;53.242;6.386;2022-11-23T06:18:24;56.17;;;29.48;;
51578;SDS011;47998;53.242;6.386;2022-11-23T06:20:50;57.33;;;30.40;;
51578;SDS011;47998;53.242;6.386;2022-11-23T06:23:16;57.72;;;31.92;;
51578;SDS011;47998;53.242;6.386;2022-11-23T06:25:42;53.97;;;30.45;;
51578;SDS011;47998;53.242;6.386;2022-11-23T06:28:07;52.70;;;31.20;;
51578;SDS011;47998;53.242;6.386;2022-11-23T06:30:33;49.75;;;29.00;;
51578;SDS011;47998;53.242;6.386;2022-11-23T06:33:01;58.40;;;30.50;;
51578;SDS011;47998;53.242;6.386;2022-11-23T06:35:28;46.97;;;27.48;;
51578;SDS011;47998;53.242;6.386;2022-11-23T06:37:54;51.95;;;28.67;;
51578;SDS011;47998;53.242;6.386;2022-11-23T06:40:20;43.92;;;26.15;;
51578;SDS011;47998;53.242;6.386;2022-11-23T06:42:46;46.35;;;27.35;;
51578;SDS011;47998;53.242;6.386;2022-11-23T06:45:12;39.08;;;25.85;;
51578;SDS011;47998;53.242;6.386;2022-11-23T06:47:38;45.40;;;26.42;;
51578;SDS011;47998;53.242;6.386;2022-11-23T06:50:04;46.55;;;27.05;;
51578;SDS011;47998;53.242;6.386;2022-11-23T06:52:30;52.50;;;25.98;;
51578;SDS011;47998;53.242;6.386;2022-11-23T06:54:56;39.47;;;24.58;;
51578;SDS011;47998;53.242;6.386;2022-11-23T06:57:21;42.15;;;25.63;;
51578;SDS011;47998;53.242;6.386;2022-11-23T06:59:47;36.20;;;24.40;;
51578;SDS011;47998;53.242;6.386;2022-11-23T07:02:13;35.67;;;21.55;;
51578;SDS011;47998;53.242;6.386;2022-11-23T07:04:38;44.65;;;23.83;;
51578;SDS011;47998;53.242;6.386;2022-11-23T07:07:06;41.47;;;23.58;;
51578;SDS011;47998;53.242;6.386;2022-11-23T07:09:32;49.28;;;24.83;;
51578;SDS011;47998;53.242;6.386;2022-11-23T07:11:58;42.72;;;22.55;;
51578;SDS011;47998;53.242;6.386;2022-11-23T07:14:23;38.78;;;22.52;;
51578;SDS011;47998;53.242;6.386;2022-11-23T07:16:50;33.28;;;22.90;;
51578;SDS011;47998;53.242;6.386;2022-11-23T07:19:16;46.53;;;21.45;;
51578;SDS011;47998;53.242;6.386;2022-11-23T07:21:41;39.08;;;21.30;;
51578;SDS011;47998;53.242;6.386;2022-11-23T07:24:07;33.42;;;20.20;;
51578;SDS011;47998;53.242;6.386;2022-11-23T07:26:32;35.38;;;20.17;;
51578;SDS011;47998;53.242;6.386;2022-11-23T07:28:58;40.22;;;19.73;;
51578;SDS011;47998;53.242;6.386;2022-11-23T07:31:25;33.38;;;18.65;;
51578;SDS011;47998;53.242;6.386;2022-11-23T07:33:50;28.38;;;17.80;;
51578;SDS011;47998;53.242;6.386;2022-11-23T07:36:17;33.03;;;17.77;;
51578;SDS011;47998;53.242;6.386;2022-11-23T07:38:43;31.02;;;17.73;;
51578;SDS011;47998;53.242;6.386;2022-11-23T07:41:09;26.83;;;16.52;;
51578;SDS011;47998;53.242;6.386;2022-11-23T07:43:35;32.97;;;16.48;;
51578;SDS011;47998;53.242;6.386;2022-11-23T07:46:01;34.33;;;16.90;;
51578;SDS011;47998;53.242;6.386;2022-11-23T07:48:27;29.92;;;16.15;;
51578;SDS011;47998;53.242;6.386;2022-11-23T07:50:53;31.08;;;15.50;;
51578;SDS011;47998;53.242;6.386;2022-11-23T07:53:19;27.17;;;15.18;;
51578;SDS011;47998;53.242;6.386;2022-11-23T07:55:45;25.38;;;14.82;;
51578;SDS011;47998;53.242;6.386;2022-11-23T07:58:10;28.83;;;14.50;;
51578;SDS011;47998;53.242;6.386;2022-11-23T08:00:36;23.52;;;14.25;;
51578;SDS011;47998;53.242;6.386;2022-11-23T08:03:02;28.92;;;14.18;;
51578;SDS011;47998;53.242;6.386;2022-11-23T08:05:31;22.73;;;12.55;;
51578;SDS011;47998;53.242;6.386;2022-11-23T08:07:59;19.98;;;13.02;;
51578;SDS011;47998;53.242;6.386;2022-11-23T08:10:29;24.33;;;13.85;;
51578;SDS011;47998;53.242;6.386;2022-11-23T08:12:56;24.08;;;13.35;;
51578;SDS011;47998;53.242;6.386;2022-11-23T08:15:22;21.50;;;12.05;;
51578;SDS011;47998;53.242;6.386;2022-11-23T08:17:52;21.75;;;12.43;;
51578;SDS011;47998;53.242;6.386;2022-11-23T08:20:19;23.35;;;12.02;;
51578;SDS011;47998;53.242;6.386;2022-11-23T08:22:45;23.65;;;11.75;;
51578;SDS011;47998;53.242;6.386;2022-11-23T08:25:10;19.52;;;11.05;;
51578;SDS011;47998;53.242;6.386;2022-11-23T08:27:36;27.13;;;12.35;;
51578;SDS011;47998;53.242;6.386;2022-11-23T08:30:02;25.52;;;12.40;;
51578;SDS011;47998;53.242;6.386;2022-11-23T08:32:28;27.58;;;11.57;;
51578;SDS011;47998;53.242;6.386;2022-11-23T08:34:53;22.00;;;10.68;;
51578;SDS011;47998;53.242;6.386;2022-11-23T08:37:19;21.10;;;11.38;;
51578;SDS011;47998;53.242;6.386;2022-11-23T08:39:45;25.92;;;10.73;;
51578;SDS011;47998;53.242;6.386;2022-11-23T08:42:10;17.25;;;10.50;;
51578;SDS011;47998;53.242;6.386;2022-11-23T08:44:36;23.38;;;11.50;;
51578;SDS011;47998;53.242;6.386;2022-11-23T08:47:02;20.60;;;9.45;;
51578;SDS011;47998;53.242;6.386;2022-11-23T08:49:27;18.02;;;9.75;;
51578;SDS011;47998;53.242;6.386;2022-11-23T08:51:53;20.70;;;9.25;;
51578;SDS011;47998;53.242;6.386;2022-11-23T08:54:19;18.65;;;9.43;;
51578;SDS011;47998;53.242;6.386;2022-11-23T08:56:46;24.85;;;9.52;;
51578;SDS011;47998;53.242;6.386;2022-11-23T08:59:12;20.27;;;9.30;;
51578;SDS011;47998;53.242;6.386;2022-11-23T09:01:38;18.73;;;8.45;;
51578;SDS011;47998;53.242;6.386;2022-11-23T09:04:03;19.10;;;8.05;;
51578;SDS011;47998;53.242;6.386;2022-11-23T09:06:33;17.90;;;8.48;;
51578;SDS011;47998;53.242;6.386;2022-11-23T09:08:58;17.38;;;7.78;;
51578;SDS011;47998;53.242;6.386;2022-11-23T09:11:24;16.25;;;7.82;;
51578;SDS011;47998;53.242;6.386;2022-11-23T09:13:50;19.98;;;7.90;;
51578;SDS011;47998;53.242;6.386;2022-11-23T09:16:16;18.65;;;6.60;;
51578;SDS011;47998;53.242;6.386;2022-11-23T09:18:42;15.38;;;7.10;;
51578;SDS011;47998;53.242;6.386;2022-11-23T09:21:08;16.60;;;7.95;;
51578;SDS011;47998;53.242;6.386;2022-11-23T09:23:34;12.48;;;6.88;;
51578;SDS011;47998;53.242;6.386;2022-11-23T09:26:00;12.77;;;6.38;;
51578;SDS011;47998;53.242;6.386;2022-11-23T09:28:26;20.85;;;6.78;;
51578;SDS011;47998;53.242;6.386;2022-11-23T09:30:52;22.00;;;8.13;;
51578;SDS011;47998;53.242;6.386;2022-11-23T09:33:19;19.13;;;6.88;;
51578;SDS011;47998;53.242;6.386;2022-11-23T09:35:46;15.95;;;6.47;;
51578;SDS011;47998;53.242;6.386;2022-11-23T09:38:11;19.60;;;7.18;;
51578;SDS011;47998;53.242;6.386;2022-11-23T09:40:38;17.52;;;6.18;;
51578;SDS011;47998;53.242;6.386;2022-11-23T09:43:25;14.13;;;5.55;;
51578;SDS011;47998;53.242;6.386;2022-11-23T09:46:01;12.40;;;5.55;;
51578;SDS011;47998;53.242;6.386;2022-11-23T09:49:19;22.77;;;5.65;;
51578;SDS011;47998;53.242;6.386;2022-11-23T09:51:29;13.82;;;4.32;;
51578;SDS011;47998;53.242;6.386;2022-11-23T09:53:55;13.55;;;4.95;;
51578;SDS011;47998;53.242;6.386;2022-11-23T09:56:42;12.02;;;4.13;;
51578;SDS011;47998;53.242;6.386;2022-11-23T10:01:54;13.10;;;4.85;;
51578;SDS011;47998;53.242;6.386;2022-11-23T10:04:20;10.70;;;3.53;;
51578;SDS011;47998;53.242;6.386;2022-11-23T10:06:53;17.67;;;4.13;;
51578;SDS011;47998;53.242;6.386;2022-11-23T10:09:37;10.60;;;3.33;;
51578;SDS011;47998;53.242;6.386;2022-11-23T10:12:16;16.35;;;4.28;;
51578;SDS011;47998;53.242;6.386;2022-11-23T10:15:03;12.27;;;4.65;;
51578;SDS011;47998;53.242;6.386;2022-11-23T10:25:49;12.48;;;3.50;;
51578;SDS011;47998;53.242;6.386;2022-11-23T10:28:18;15.57;;;5.32;;
51578;SDS011;47998;53.242;6.386;2022-11-23T10:30:52;10.20;;;4.28;;
51578;SDS011;47998;53.242;6.386;2022-11-23T10:33:30;14.90;;;4.68;;
51578;SDS011;47998;53.242;6.386;2022-11-23T10:36:02;15.07;;;4.78;;
51578;SDS011;47998;53.242;6.386;2022-11-23T10:38:28;14.63;;;4.68;;
51578;SDS011;47998;53.242;6.386;2022-11-23T10:41:01;14.50;;;5.05;;
51578;SDS011;47998;53.242;6.386;2022-11-23T10:43:43;12.80;;;4.60;;
51578;SDS011;47998;53.242;6.386;2022-11-23T10:48:55;16.73;;;4.30;;
51578;SDS011;47998;53.242;6.386;2022-11-23T10:51:32;13.52;;;4.35;;
51578;SDS011;47998;53.242;6.386;2022-11-23T10:54:01;13.75;;;5.28;;
51578;SDS011;47998;53.242;6.386;2022-11-23T10:56:29;15.07;;;4.93;;
51578;SDS011;47998;53.242;6.386;2022-11-23T10:58:56;19.60;;;4.95;;
51578;SDS011;47998;53.242;6.386;2022-11-23T11:01:26;16.60;;;4.70;;
51578;SDS011;47998;53.242;6.386;2022-11-23T11:03:54;18.40;;;4.80;;
51578;SDS011;47998;53.242;6.386;2022-11-23T11:08:55;24.05;;;5.25;;
51578;SDS011;47998;53.242;6.386;2022-11-23T11:11:27;26.38;;;5.47;;
51578;SDS011;47998;53.242;6.386;2022-11-23T11:14:18;17.95;;;4.40;;
51578;SDS011;47998;53.242;6.386;2022-11-23T11:16:50;14.05;;;3.85;;
51578;SDS011;47998;53.242;6.386;2022-11-23T11:19:28;16.05;;;3.05;;
51578;SDS011;47998;53.242;6.386;2022-11-23T11:21:59;11.32;;;4.22;;
51578;SDS011;47998;53.242;6.386;2022-11-23T11:24:35;18.80;;;3.95;;
51578;SDS011;47998;53.242;6.386;2022-11-23T11:27:05;17.38;;;3.38;;
51578;SDS011;47998;53.242;6.386;2022-11-23T11:29:50;12.13;;;3.40;;
51578;SDS011;47998;53.242;6.386;2022-11-23T11:32:20;14.80;;;3.00;;
51578;SDS011;47998;53.242;6.386;2022-11-23T11:34:57;14.02;;;3.10;;
51578;SDS011;47998;53.242;6.386;2022-11-23T11:37:36;14.40;;;3.47;;
51578;SDS011;47998;53.242;6.386;2022-11-23T11:45:36;13.30;;;3.28;;
51578;SDS011;47998;53.242;6.386;2022-11-23T11:50:49;21.83;;;3.63;;
51578;SDS011;47998;53.242;6.386;2022-11-23T11:53:17;13.98;;;2.53;;
51578;SDS011;47998;53.242;6.386;2022-11-23T11:55:51;12.90;;;2.47;;
51578;SDS011;47998;53.242;6.386;2022-11-23T11:58:38;12.23;;;2.28;;
51578;SDS011;47998;53.242;6.386;2022-11-23T12:03:55;13.20;;;3.75;;
51578;SDS011;47998;53.242;6.386;2022-11-23T12:06:32;17.10;;;2.35;;
51578;SDS011;47998;53.242;6.386;2022-11-23T12:09:24;9.88;;;2.70;;
51578;SDS011;47998;53.242;6.386;2022-11-23T12:11:55;14.85;;;2.72;;
51578;SDS011;47998;53.242;6.386;2022-11-23T12:14:22;10.25;;;2.63;;
51578;SDS011;47998;53.242;6.386;2022-11-23T12:32:30;14.55;;;2.17;;
51578;SDS011;47998;53.242;6.386;2022-11-23T12:35:18;11.50;;;2.10;;
51578;SDS011;47998;53.242;6.386;2022-11-23T12:43:11;11.18;;;1.92;;
51578;SDS011;47998;53.242;6.386;2022-11-23T12:48:51;11.13;;;2.00;;
51578;SDS011;47998;53.242;6.386;2022-11-23T12:51:33;14.82;;;2.33;;
51578;SDS011;47998;53.242;6.386;2022-11-23T12:54:13;12.38;;;2.35;;
51578;SDS011;47998;53.242;6.386;2022-11-23T12:57:01;11.13;;;2.35;;
51578;SDS011;47998;53.242;6.386;2022-11-23T12:59:51;11.30;;;2.22;;
51578;SDS011;47998;53.242;6.386;2022-11-23T13:16:56;10.93;;;2.17;;
51578;SDS011;47998;53.242;6.386;2022-11-23T13:22:25;12.25;;;2.42;;
51578;SDS011;47998;53.242;6.386;2022-11-23T13:30:22;9.32;;;2.20;;
51578;SDS011;47998;53.242;6.386;2022-11-23T13:42:50;8.68;;;1.67;;
51578;SDS011;47998;53.242;6.386;2022-11-23T13:53:25;6.32;;;1.92;;
51578;SDS011;47998;53.242;6.386;2022-11-23T14:04:30;12.88;;;2.17;;
51578;SDS011;47998;53.242;6.386;2022-11-23T14:07:04;9.85;;;2.08;;
51578;SDS011;47998;53.242;6.386;2022-11-23T14:15:17;13.80;;;2.03;;
51578;SDS011;47998;53.242;6.386;2022-11-23T14:31:36;12.02;;;2.08;;
51578;SDS011;47998;53.242;6.386;2022-11-23T14:39:39;12.13;;;1.20;;
51578;SDS011;47998;53.242;6.386;2022-11-23T14:42:17;12.13;;;1.88;;
51578;SDS011;47998;53.242;6.386;2022-11-23T14:44:45;7.70;;;1.73;;
51578;SDS011;47998;53.242;6.386;2022-11-23T14:47:12;6.70;;;2.10;;
51578;SDS011;47998;53.242;6.386;2022-11-23T14:49:50;9.63;;;1.83;;
51578;SDS011;47998;53.242;6.386;2022-11-23T14:52:32;6.93;;;1.30;;
51578;SDS011;47998;53.242;6.386;2022-11-23T14:55:00;9.80;;;1.50;;
51578;SDS011;47998;53.242;6.386;2022-11-23T14:57:38;10.75;;;2.38;;
51578;SDS011;47998;53.242;6.386;2022-11-23T15:00:19;9.43;;;1.65;;
51578;SDS011;47998;53.242;6.386;2022-11-23T15:02:47;6.85;;;1.27;;
51578;SDS011;47998;53.242;6.386;2022-11-23T15:07:50;18.45;;;3.17;;
51578;SDS011;47998;53.242;6.386;2022-11-23T15:10:30;14.63;;;1.52;;
51578;SDS011;47998;53.242;6.386;2022-11-23T15:13:20;7.38;;;1.55;;
51578;SDS011;47998;53.242;6.386;2022-11-23T15:15:52;8.35;;;1.35;;
51578;SDS011;47998;53.242;6.386;2022-11-23T15:18:26;13.38;;;2.22;;
51578;SDS011;47998;53.242;6.386;2022-11-23T15:20:53;12.30;;;2.67;;
51578;SDS011;47998;53.242;6.386;2022-11-23T15:23:22;7.75;;;1.33;;
51578;SDS011;47998;53.242;6.386;2022-11-23T15:25:53;9.20;;;1.58;;
51578;SDS011;47998;53.242;6.386;2022-11-23T15:28:22;11.65;;;1.65;;
51578;SDS011;47998;53.242;6.386;2022-11-23T15:30:51;8.23;;;2.05;;
51578;SDS011;47998;53.242;6.386;2022-11-23T15:33:18;6.80;;;1.30;;
51578;SDS011;47998;53.242;6.386;2022-11-23T15:35:45;15.02;;;1.73;;
51578;SDS011;47998;53.242;6.386;2022-11-23T15:38:13;7.43;;;1.20;;
51578;SDS011;47998;53.242;6.386;2022-11-23T15:40:40;9.38;;;1.60;;
51578;SDS011;47998;53.242;6.386;2022-11-23T15:43:12;4.72;;;0.95;;
51578;SDS011;47998;53.242;6.386;2022-11-23T15:48:12;10.30;;;1.25;;
51578;SDS011;47998;53.242;6.386;2022-11-23T15:50:56;10.70;;;2.22;;
51578;SDS011;47998;53.242;6.386;2022-11-23T15:53:24;9.68;;;2.35;;
51578;SDS011;47998;53.242;6.386;2022-11-23T15:55:53;11.82;;;1.98;;
51578;SDS011;47998;53.242;6.386;2022-11-23T15:58:23;4.95;;;2.00;;
51578;SDS011;47998;53.242;6.386;2022-11-23T16:00:49;11.60;;;1.85;;
51578;SDS011;47998;53.242;6.386;2022-11-23T16:08:35;7.35;;;1.60;;
51578;SDS011;47998;53.242;6.386;2022-11-23T16:11:01;7.25;;;1.50;;
51578;SDS011;47998;53.242;6.386;2022-11-23T16:13:38;8.95;;;1.73;;
51578;SDS011;47998;53.242;6.386;2022-11-23T16:16:05;9.98;;;1.58;;
51578;SDS011;47998;53.242;6.386;2022-11-23T16:18:41;9.23;;;1.73;;
51578;SDS011;47998;53.242;6.386;2022-11-23T16:21:13;8.25;;;1.80;;
51578;SDS011;47998;53.242;6.386;2022-11-23T16:23:46;10.48;;;1.52;;
51578;SDS011;47998;53.242;6.386;2022-11-23T16:26:19;8.00;;;1.40;;
51578;SDS011;47998;53.242;6.386;2022-11-23T16:28:53;9.73;;;1.98;;
51578;SDS011;47998;53.242;6.386;2022-11-23T16:31:34;9.32;;;1.88;;
51578;SDS011;47998;53.242;6.386;2022-11-23T16:34:01;7.57;;;1.77;;
51578;SDS011;47998;53.242;6.386;2022-11-23T16:36:33;6.22;;;1.20;;
51578;SDS011;47998;53.242;6.386;2022-11-23T16:38:58;6.95;;;1.60;;
51578;SDS011;47998;53.242;6.386;2022-11-23T16:41:24;7.90;;;1.38;;
51578;SDS011;47998;53.242;6.386;2022-11-23T16:43:53;13.25;;;1.45;;
51578;SDS011;47998;53.242;6.386;2022-11-23T16:46:19;6.78;;;1.05;;
51578;SDS011;47998;53.242;6.386;2022-11-23T16:48:45;9.00;;;1.77;;
51578;SDS011;47998;53.242;6.386;2022-11-23T16:51:10;5.10;;;1.20;;
51578;SDS011;47998;53.242;6.386;2022-11-23T16:53:42;7.00;;;1.45;;